Time;durP1;ratioP1;P1;durP2;ratioP2;P2;SDS_P1;SDS_P2;PMS_P1;PMS_P2;Temp;Humidity;BMP_temperature;BMP_pressure;BME280_temperature;BME280_humidity;BME280_pressure;Samples;Min_cycle;Max_cycle;Signal;HPM_P1;HPM_P2
2023/10/12 00:02:04;;;;;;;7.72;3.95;;;11.90;99.90;;;;;;5016327;28;20037;-86
2023/10/12 00:04:43;;;;;;;8.27;4.10;;;11.90;99.90;;;;;;5015918;28;20160;-87
2023/10/12 00:07:15;;;;;;;7.50;3.80;;;12.00;99.90;;;;;;5016292;28;20030;-87
2023/10/12 00:09:48;;;;;;;8.10;4.50;;;12.00;99.90;;;;;;5016798;28;20056;-87
2023/10/12 00:12:23;;;;;;;8.38;3.78;;;12.00;99.90;;;;;;5017556;28;20030;-87
2023/10/12 00:14:49;;;;;;;8.13;4.00;;;12.00;99.90;;;;;;5014397;28;20527;-87
2023/10/12 00:17:17;;;;;;;8.30;4.03;;;12.10;99.90;;;;;;5016855;28;20112;-87
2023/10/12 00:19:42;;;;;;;8.90;3.78;;;12.10;99.90;;;;;;5028091;28;20030;-86
2023/10/12 00:22:17;;;;;;;7.18;3.88;;;12.10;99.90;;;;;;5029296;28;20462;-85
2023/10/12 00:24:43;;;;;;;10.27;4.45;;;12.20;99.90;;;;;;5020531;28;20033;-86
2023/10/12 00:27:11;;;;;;;9.30;4.28;;;12.20;99.90;;;;;;5018546;28;20040;-86
2023/10/12 00:29:39;;;;;;;8.40;3.83;;;12.20;99.90;;;;;;5016724;28;20029;-86
2023/10/12 00:32:08;;;;;;;8.68;4.05;;;12.30;99.90;;;;;;5017448;28;20472;-86
2023/10/12 00:34:38;;;;;;;7.53;3.70;;;12.30;99.90;;;;;;5016742;28;20030;-86
2023/10/12 00:37:06;;;;;;;8.20;3.72;;;12.40;99.90;;;;;;5017285;28;20033;-86
2023/10/12 00:42:24;;;;;;;9.77;3.70;;;12.60;99.90;;;;;;5011799;28;20100;-86
2023/10/12 00:44:52;;;;;;;9.93;4.47;;;12.70;99.90;;;;;;5014700;28;20100;-87
2023/10/12 00:50:11;;;;;;;15.98;3.80;;;13.00;99.90;;;;;;5016406;28;20040;-85
2023/10/12 00:52:55;;;;;;;10.20;3.50;;;13.10;99.90;;;;;;5015805;28;20525;-87
2023/10/12 00:55:34;;;;;;;10.57;3.88;;;13.20;99.90;;;;;;5015253;28;20038;-86
2023/10/12 00:58:08;;;;;;;9.10;3.50;;;13.30;99.90;;;;;;5016055;28;20114;-87
2023/10/12 01:00:35;;;;;;;10.30;4.10;;;13.40;99.90;;;;;;5016019;28;20079;-86
2023/10/12 01:03:09;;;;;;;13.80;3.80;;;13.50;99.90;;;;;;5016809;28;20112;-86
2023/10/12 01:05:35;;;;;;;11.23;3.90;;;13.50;99.90;;;;;;5017089;28;20022;-85
2023/10/12 01:08:04;;;;;;;12.68;3.53;;;13.60;99.90;;;;;;5016454;28;20377;-85
2023/10/12 01:10:32;;;;;;;15.40;3.33;;;13.70;99.90;;;;;;5015309;28;20029;-86
2023/10/12 01:13:00;;;;;;;14.77;3.85;;;13.80;99.90;;;;;;5016679;28;20777;-86
2023/10/12 01:15:29;;;;;;;9.77;3.63;;;13.90;99.90;;;;;;5015228;28;20723;-85
2023/10/12 01:17:56;;;;;;;12.18;4.55;;;14.00;99.90;;;;;;5015473;28;20043;-86
2023/10/12 01:20:26;;;;;;;7.18;3.45;;;14.00;99.90;;;;;;5016219;28;20093;-85
2023/10/12 01:22:52;;;;;;;12.73;4.93;;;14.20;99.90;;;;;;5015403;28;20126;-86
2023/10/12 01:25:29;;;;;;;9.98;3.60;;;14.20;99.90;;;;;;5015487;28;20044;-86
2023/10/12 01:27:55;;;;;;;8.73;3.58;;;14.30;99.90;;;;;;5016075;28;20025;-86
2023/10/12 01:30:24;;;;;;;10.70;3.85;;;14.30;99.90;;;;;;5015420;28;20038;-86
2023/10/12 01:32:57;;;;;;;11.32;3.80;;;14.40;99.90;;;;;;5016043;28;20032;-87
2023/10/12 01:35:33;;;;;;;10.30;3.20;;;14.40;99.90;;;;;;5016045;28;20025;-87
2023/10/12 01:38:05;;;;;;;11.45;3.70;;;14.40;99.90;;;;;;5017096;28;20080;-87
2023/10/12 01:43:17;;;;;;;15.75;4.00;;;14.40;99.90;;;;;;5015152;28;20026;-88
2023/10/12 01:45:43;;;;;;;10.60;3.40;;;14.40;99.90;;;;;;5016094;28;20033;-87
2023/10/12 01:48:17;;;;;;;9.25;3.63;;;14.40;99.90;;;;;;5015946;28;20040;-87
2023/10/12 01:50:43;;;;;;;7.95;4.22;;;14.50;99.90;;;;;;5016299;28;20032;-87
2023/10/12 01:53:25;;;;;;;9.60;3.80;;;14.50;99.90;;;;;;5017071;28;20033;-87
2023/10/12 01:55:52;;;;;;;9.55;3.55;;;14.50;99.90;;;;;;5017619;28;21080;-86
2023/10/12 01:58:19;;;;;;;10.35;3.65;;;14.50;99.90;;;;;;5017209;28;20022;-86
2023/10/12 02:00:51;;;;;;;8.18;3.72;;;14.50;99.90;;;;;;5018481;28;20017;-86
2023/10/12 02:06:13;;;;;;;12.63;3.97;;;14.50;99.90;;;;;;5036656;28;20033;-86
2023/10/12 02:08:45;;;;;;;8.75;3.33;;;14.50;99.90;;;;;;5019965;28;20090;-86
2023/10/12 02:11:12;;;;;;;11.10;4.25;;;14.50;99.90;;;;;;5020928;28;20029;-86
2023/10/12 02:13:41;;;;;;;9.88;3.83;;;14.50;99.90;;;;;;5037646;28;20038;-85
2023/10/12 02:16:12;;;;;;;10.35;3.35;;;14.50;99.90;;;;;;5047361;28;20037;-85
2023/10/12 02:18:38;;;;;;;12.10;4.00;;;14.60;99.90;;;;;;5040453;28;20040;-86
2023/10/12 02:21:11;;;;;;;10.77;3.40;;;14.60;99.90;;;;;;5016620;28;20449;-86
2023/10/12 02:23:53;;;;;;;10.43;3.67;;;14.50;99.90;;;;;;5017340;28;20029;-86
2023/10/12 02:26:35;;;;;;;10.38;3.50;;;14.50;99.90;;;;;;5015935;28;20076;-86
2023/10/12 02:31:38;;;;;;;14.95;3.63;;;14.40;99.90;;;;;;5018259;28;20424;-86
2023/10/12 02:34:03;;;;;;;10.43;3.33;;;14.40;99.90;;;;;;5019624;28;20026;-86
2023/10/12 02:36:29;;;;;;;10.40;3.40;;;14.30;99.90;;;;;;5019359;28;20218;-86
2023/10/12 02:39:10;;;;;;;11.95;3.28;;;14.20;99.90;;;;;;5019200;28;20084;-86
2023/10/12 02:41:45;;;;;;;10.23;3.80;;;14.20;99.90;;;;;;5022173;28;20584;-86
2023/10/12 02:44:18;;;;;;;11.32;3.40;;;14.10;99.90;;;;;;5024592;28;20021;-86
2023/10/12 02:47:04;;;;;;;9.20;3.30;;;14.10;99.90;;;;;;5022313;28;20062;-86
2023/10/12 02:49:35;;;;;;;;;;;14.00;99.90;;;;;;5019024;28;20034;-86
2023/10/12 02:52:08;;;;;;;10.70;3.25;;;14.00;99.90;;;;;;5018455;28;21273;-87
2023/10/12 02:54:47;;;;;;;10.20;3.30;;;13.90;99.90;;;;;;5019342;28;20033;-87
2023/10/12 02:57:14;;;;;;;16.05;3.95;;;13.90;99.90;;;;;;5017073;28;20827;-86
2023/10/12 02:59:40;;;;;;;11.70;3.60;;;13.80;99.90;;;;;;5019154;28;20025;-86
2023/10/12 03:02:19;;;;;;;8.50;3.60;;;13.70;99.90;;;;;;5017662;28;20087;-87
2023/10/12 03:04:45;;;;;;;8.07;3.38;;;13.70;99.90;;;;;;5018344;28;20026;-87
2023/10/12 03:07:16;;;;;;;11.15;4.15;;;13.60;99.90;;;;;;5016862;28;20403;-86
2023/10/12 03:09:43;;;;;;;16.15;3.70;;;13.60;99.90;;;;;;5015827;28;20060;-86
2023/10/12 03:12:10;;;;;;;8.30;3.47;;;13.50;99.90;;;;;;5018356;28;20041;-87
2023/10/12 03:14:35;;;;;;;9.38;3.50;;;13.50;99.90;;;;;;5017967;28;20030;-87
2023/10/12 03:17:05;;;;;;;10.98;3.97;;;13.40;99.90;;;;;;5018089;28;20465;-86
2023/10/12 03:19:35;;;;;;;11.88;3.88;;;13.40;99.90;;;;;;5017814;28;20089;-87
2023/10/12 03:22:16;;;;;;;7.90;3.47;;;13.30;99.90;;;;;;5018491;28;20034;-87
2023/10/12 03:24:45;;;;;;;12.85;3.80;;;13.30;99.90;;;;;;5016341;28;20022;-86
2023/10/12 03:27:13;;;;;;;10.05;4.05;;;13.20;99.90;;;;;;5017205;28;20028;-86
2023/10/12 03:29:54;;;;;;;10.95;4.40;;;13.20;99.90;;;;;;5016706;28;20075;-86
2023/10/12 03:32:23;;;;;;;9.68;3.97;;;13.10;99.90;;;;;;5018482;28;20135;-86
2023/10/12 03:37:18;;;;;;;10.85;3.75;;;13.00;99.90;;;;;;5016676;28;20198;-86
2023/10/12 03:44:57;;;;;;;11.32;4.53;;;12.80;99.90;;;;;;5017021;28;20031;-86
2023/10/12 03:52:39;;;;;;;9.43;3.10;;;12.70;99.90;;;;;;5017585;28;20017;-86
2023/10/12 04:02:42;;;;;;;11.15;3.97;;;12.40;99.90;;;;;;5019105;28;20037;-85
2023/10/12 04:13:54;;;;;;;10.32;4.10;;;12.10;99.90;;;;;;5017982;28;20119;-88
2023/10/12 04:19:02;;;;;;;8.10;3.40;;;12.10;99.90;;;;;;5023563;28;20052;-88
2023/10/12 04:21:33;;;;;;;13.02;4.60;;;12.10;99.90;;;;;;5023979;28;20025;-87
2023/10/12 04:29:00;;;;;;;8.32;3.63;;;12.00;99.90;;;;;;5021148;28;20048;-86
2023/10/12 04:36:48;;;;;;;9.82;3.85;;;11.90;99.90;;;;;;5017263;28;20063;-86
2023/10/12 04:46:51;;;;;;;16.13;8.43;;;11.80;99.90;;;;;;5015265;28;20034;-86
2023/10/12 04:51:48;;;;;;;12.90;6.05;;;11.80;99.90;;;;;;5016563;28;20037;-86
2023/10/12 04:54:23;;;;;;;15.15;5.38;;;11.80;99.90;;;;;;5018306;28;20555;-85
2023/10/12 05:02:22;;;;;;;10.18;4.70;;;11.80;99.90;;;;;;5019885;28;20033;-86
2023/10/12 05:09:49;;;;;;;24.00;9.23;;;11.70;99.90;;;;;;5033567;28;20025;-86
2023/10/12 05:12:18;;;;;;;18.13;7.90;;;11.70;99.90;;;;;;5046092;28;20089;-84
2023/10/12 05:14:44;;;;;;;15.40;6.95;;;11.70;99.90;;;;;;5041769;28;20014;-84
2023/10/12 05:17:10;;;;;;;12.55;6.07;;;11.70;99.90;;;;;;5019375;28;20037;-86
2023/10/12 05:19:37;;;;;;;14.27;5.47;;;11.80;99.90;;;;;;5015851;28;20029;-87
2023/10/12 05:22:03;;;;;;;15.57;5.55;;;11.80;99.90;;;;;;5014199;28;20114;-87
2023/10/12 05:24:29;;;;;;;11.27;4.65;;;11.80;99.90;;;;;;5011369;28;20135;-87
2023/10/12 05:27:05;;;;;;;13.82;5.22;;;11.80;99.90;;;;;;5014246;28;20026;-86
2023/10/12 05:29:38;;;;;;;12.90;5.68;;;11.80;99.90;;;;;;5014143;28;20552;-86
2023/10/12 05:32:18;;;;;;;11.73;5.63;;;11.90;99.90;;;;;;5013419;28;20053;-87
2023/10/12 05:34:45;;;;;;;10.48;5.28;;;11.90;99.90;;;;;;5032450;28;20038;-86
2023/10/12 05:39:51;;;;;;;14.50;5.90;;;11.90;99.90;;;;;;5011659;28;20029;-87
2023/10/12 05:42:20;;;;;;;18.27;5.70;;;12.00;99.90;;;;;;5012573;28;20084;-86
2023/10/12 05:44:48;;;;;;;13.27;4.90;;;12.00;99.90;;;;;;5009959;28;20068;-86
2023/10/12 05:47:17;;;;;;;15.32;4.72;;;12.10;99.90;;;;;;5012175;28;20083;-86
2023/10/12 05:49:45;;;;;;;12.55;4.85;;;12.20;99.90;;;;;;5014629;28;21353;-86
2023/10/12 05:52:11;;;;;;;12.07;4.47;;;12.30;99.90;;;;;;5017137;28;20044;-87
2023/10/12 05:54:40;;;;;;;11.13;4.63;;;12.40;99.90;;;;;;5014869;28;20116;-87
2023/10/12 05:57:18;;;;;;;13.07;4.40;;;12.40;99.90;;;;;;5019047;28;20431;-87
2023/10/12 05:59:44;;;;;;;11.70;4.57;;;12.50;99.90;;;;;;5021766;28;20103;-87
2023/10/12 06:02:10;;;;;;;10.75;4.38;;;12.70;99.90;;;;;;5024365;28;20045;-87
2023/10/12 06:04:36;;;;;;;11.98;4.28;;;12.80;99.90;;;;;;5014022;28;20404;-86
2023/10/12 06:07:03;;;;;;;9.20;4.50;;;12.90;99.90;;;;;;5017017;28;20468;-86
2023/10/12 06:09:35;;;;;;;10.85;3.78;;;13.00;99.90;;;;;;5013575;28;20034;-86
2023/10/12 06:12:13;;;;;;;11.07;3.97;;;13.10;99.90;;;;;;5015427;28;20034;-85
2023/10/12 06:14:52;;;;;;;11.13;4.18;;;13.30;99.90;;;;;;4997084;28;20443;-86
2023/10/12 06:17:29;;;;;;;9.48;4.03;;;13.40;99.90;;;;;;5014354;28;20026;-86
2023/10/12 06:19:55;;;;;;;17.77;4.50;;;13.50;99.90;;;;;;5016942;28;20117;-87
2023/10/12 06:22:24;;;;;;;12.15;4.22;;;13.70;99.90;;;;;;5014475;28;20026;-87
2023/10/12 06:24:52;;;;;;;10.80;4.22;;;13.80;99.90;;;;;;5013415;28;20603;-85
2023/10/12 06:29:44;;;;;;;7.65;4.10;;;14.00;99.90;;;;;;5014763;28;20096;-86
2023/10/12 06:32:18;;;;;;;15.48;4.57;;;14.10;99.90;;;;;;5015424;28;20025;-86
2023/10/12 06:35:13;;;;;;;9.93;4.30;;;14.20;99.90;;;;;;5013940;28;20107;-86
2023/10/12 06:45:52;;;;;;;13.88;3.75;;;14.50;99.90;;;;;;5015651;28;20124;-85
2023/10/12 06:51:04;;;;;;;9.10;3.55;;;14.70;99.90;;;;;;5014944;28;20731;-86
2023/10/12 06:53:34;;;;;;;8.57;3.50;;;14.70;99.90;;;;;;5013682;28;20092;-85
2023/10/12 06:59:07;;;;;;;10.68;4.40;;;14.80;99.90;;;;;;5013982;28;20404;-86
2023/10/12 07:04:15;;;;;;;7.72;4.10;;;15.00;99.90;;;;;;5015700;28;20056;-85
2023/10/12 07:06:56;;;;;;;7.90;3.58;;;15.00;99.90;;;;;;5016166;28;20056;-85
2023/10/12 07:09:46;;;;;;;7.15;3.90;;;15.10;99.90;;;;;;5016701;28;20083;-86
2023/10/12 07:12:19;;;;;;;7.30;3.53;;;15.10;99.90;;;;;;5015142;28;20675;-86
2023/10/12 07:14:55;;;;;;;10.73;3.53;;;15.20;99.90;;;;;;5013696;28;20147;-86
2023/10/12 07:17:34;;;;;;;11.48;4.10;;;15.30;99.90;;;;;;5018854;28;20033;-85
2023/10/12 07:20:00;;;;;;;9.45;4.00;;;15.40;99.90;;;;;;5031323;28;20029;-86
2023/10/12 07:22:26;;;;;;;10.02;4.20;;;15.50;99.90;;;;;;5013404;28;20042;-86
2023/10/12 07:24:56;;;;;;;14.52;3.83;;;15.70;99.90;;;;;;5015144;28;20040;-86
2023/10/12 07:27:26;;;;;;;9.27;4.20;;;15.90;99.90;;;;;;5016016;28;20025;-86
2023/10/12 07:32:56;;;;;;;7.95;4.05;;;16.40;99.90;;;;;;4991550;28;20092;-86
2023/10/12 07:35:31;;;;;;;8.57;4.35;;;16.70;99.90;;;;;;5014287;28;20065;-86
2023/10/12 07:38:14;;;;;;;9.27;3.50;;;16.90;99.90;;;;;;5014765;28;20034;-85
2023/10/12 07:41:01;;;;;;;16.60;3.78;;;17.10;99.90;;;;;;5016067;28;20026;-85
2023/10/12 07:43:31;;;;;;;10.45;3.72;;;17.40;99.90;;;;;;5015016;28;20068;-85
2023/10/12 07:46:25;;;;;;;9.55;3.75;;;17.60;99.90;;;;;;5014947;28;20030;-86
2023/10/12 07:48:51;;;;;;;10.43;3.97;;;17.90;99.90;;;;;;5016867;28;20033;-84
2023/10/12 07:51:26;;;;;;;14.38;4.55;;;18.10;99.90;;;;;;5014257;28;20409;-85
2023/10/12 07:54:22;;;;;;;12.93;4.43;;;18.30;99.90;;;;;;5014417;28;20022;-85
2023/10/12 07:56:47;;;;;;;9.05;3.13;;;18.40;99.90;;;;;;5019486;28;21492;-86
2023/10/12 07:59:16;;;;;;;12.90;3.95;;;18.70;99.90;;;;;;5019452;28;20096;-85
2023/10/12 08:01:50;;;;;;;12.55;3.85;;;18.90;99.90;;;;;;5014926;28;20082;-86
2023/10/12 08:04:32;;;;;;;10.48;4.00;;;19.10;99.90;;;;;;5044532;28;20018;-85
2023/10/12 08:06:59;;;;;;;14.20;3.80;;;19.20;99.90;;;;;;5046457;28;20025;-84
2023/10/12 08:11:51;;;;;;;9.60;3.97;;;19.30;99.90;;;;;;5043861;28;21428;-86
2023/10/12 08:17:24;;;;;;;8.57;3.08;;;19.40;99.90;;;;;;5015559;28;20467;-86
2023/10/12 08:19:42;;;;;;;10.90;3.95;;;19.50;99.90;;;;;;5015232;28;20029;-86
2023/10/12 08:22:26;;;;;;;9.73;3.40;;;19.70;99.90;;;;;;5017551;28;20087;-86
2023/10/12 08:24:56;;;;;;;7.37;3.27;;;19.80;99.90;;;;;;5014930;28;20092;-86
2023/10/12 08:27:39;;;;;;;9.70;3.58;;;19.90;99.90;;;;;;5015541;28;20280;-87
2023/10/12 08:30:21;;;;;;;9.48;3.10;;;19.90;99.90;;;;;;5011786;28;20120;-84
2023/10/12 08:32:57;;;;;;;10.20;3.83;;;20.10;99.90;;;;;;5013185;28;20037;-86
2023/10/12 08:35:37;;;;;;;11.40;3.50;;;20.20;99.90;;;;;;5011115;28;20061;-87
2023/10/12 08:38:12;;;;;;;8.02;3.20;;;20.50;99.90;;;;;;5013474;28;20095;-86
2023/10/12 08:41:20;;;;;;;;;;;20.60;99.90;;;;;;5011466;28;20535;-84
2023/10/12 08:43:45;;;;;;;9.75;3.20;;;20.80;99.90;;;;;;5013421;28;19920;-87
2023/10/12 08:46:12;;;;;;;11.77;3.42;;;20.90;99.90;;;;;;5013441;28;20388;-85
2023/10/12 08:48:52;;;;;;;12.50;3.25;;;21.00;99.90;;;;;;5015573;28;20017;-85
2023/10/12 08:51:28;;;;;;;10.13;3.22;;;21.00;99.90;;;;;;5018230;28;20087;-87
2023/10/12 08:53:57;;;;;;;10.50;3.22;;;21.00;99.90;;;;;;5015034;28;20415;-85
2023/10/12 08:56:26;;;;;;;7.97;3.42;;;21.10;99.90;;;;;;5013674;28;20512;-85
2023/10/12 08:58:57;;;;;;;12.70;3.67;;;21.20;99.90;;;;;;5020053;28;20420;-85
2023/10/12 09:01:23;;;;;;;7.95;3.38;;;21.20;99.90;;;;;;5017647;28;20083;-86
2023/10/12 09:03:53;;;;;;;10.50;3.30;;;21.40;99.90;;;;;;5010542;28;20043;-86
2023/10/12 09:09:04;;;;;;;8.65;3.40;;;21.90;99.90;;;;;;5012713;28;20068;-86
2023/10/12 09:11:33;;;;;;;10.02;3.35;;;22.30;99.90;;;;;;5014996;28;20088;-86
2023/10/12 09:14:00;;;;;;;9.10;3.45;;;22.60;99.90;;;;;;5017522;28;20029;-86
2023/10/12 09:16:27;;;;;;;10.02;3.75;;;22.70;99.90;;;;;;5018585;28;20026;-84
2023/10/12 09:18:59;;;;;;;10.50;3.80;;;22.80;99.90;;;;;;5016839;28;20040;-86
2023/10/12 09:21:38;;;;;;;6.40;3.45;;;22.90;99.90;;;;;;5015202;28;20067;-85
2023/10/12 09:26:34;;;;;;;7.78;3.45;;;22.70;99.90;;;;;;5018238;28;20044;-86
2023/10/12 09:36:44;;;;;;;8.85;3.20;;;22.50;99.90;;;;;;5013929;28;20222;-85
2023/10/12 09:39:24;;;;;;;9.80;3.40;;;22.60;99.90;;;;;;5019454;28;20488;-85
2023/10/12 09:41:59;;;;;;;7.55;3.15;;;22.60;99.90;;;;;;4998725;28;20064;-86
2023/10/12 09:44:27;;;;;;;6.97;3.03;;;22.70;99.90;;;;;;5016100;28;20079;-85
2023/10/12 09:46:57;;;;;;;8.35;3.67;;;22.80;99.90;;;;;;5019488;28;20044;-87
2023/10/12 09:49:29;;;;;;;8.98;3.72;;;22.80;99.90;;;;;;5014578;28;20065;-85
2023/10/12 09:52:00;;;;;;;13.48;3.55;;;22.90;99.90;;;;;;5013525;28;20065;-85
2023/10/12 09:54:45;;;;;;;8.65;3.85;;;23.00;99.90;;;;;;5014449;28;20033;-87
2023/10/12 09:57:25;;;;;;;8.35;3.33;;;23.10;99.90;;;;;;5014622;28;20456;-87
2023/10/12 10:00:01;;;;;;;7.57;3.70;;;23.10;99.90;;;;;;5016654;28;20455;-78
2023/10/12 10:02:34;;;;;;;12.85;3.60;;;23.20;99.90;;;;;;5015684;28;20167;-77
2023/10/12 10:05:04;;;;;;;8.15;3.42;;;23.20;99.90;;;;;;5013687;28;20026;-78
2023/10/12 10:07:36;;;;;;;10.38;3.67;;;23.20;99.90;;;;;;5011867;28;20041;-78
2023/10/12 10:10:16;;;;;;;12.88;3.20;;;23.30;99.90;;;;;;5011017;28;20684;-80
2023/10/12 10:12:42;;;;;;;9.30;3.40;;;23.50;99.90;;;;;;5013603;28;20128;-78
2023/10/12 10:15:20;;;;;;;8.88;3.53;;;23.60;99.90;;;;;;5012027;28;20499;-78
2023/10/12 10:17:52;;;;;;;13.38;3.50;;;23.70;99.90;;;;;;5011628;28;20030;-77
2023/10/12 10:23:01;;;;;;;9.05;3.80;;;24.00;99.90;;;;;;5014280;28;20120;-83
2023/10/12 10:25:46;;;;;;;11.73;4.10;;;24.20;99.90;;;;;;5020475;28;20030;-78
2023/10/12 10:28:23;;;;;;;11.50;3.83;;;24.30;99.90;;;;;;5020803;28;20018;-80
2023/10/12 10:30:50;;;;;;;10.10;3.63;;;24.40;99.90;;;;;;5021772;28;20411;-79
2023/10/12 10:33:22;;;;;;;11.88;3.40;;;24.40;99.90;;;;;;5019934;28;20029;-79
2023/10/12 10:36:00;;;;;;;12.77;3.92;;;24.50;99.90;;;;;;5018612;28;20121;-80
2023/10/12 10:38:35;;;;;;;11.07;3.28;;;24.60;99.90;;;;;;5025344;28;21446;-79
2023/10/12 10:41:05;;;;;;;10.20;3.72;;;24.70;99.90;;;;;;5022124;28;20018;-78
2023/10/12 10:43:37;;;;;;;6.70;3.40;;;24.80;99.90;;;;;;5021062;28;20033;-78
2023/10/12 10:46:09;;;;;;;10.52;3.75;;;24.80;99.90;;;;;;5018361;28;20025;-79
2023/10/12 10:48:36;;;;;;;10.77;3.30;;;24.80;99.90;;;;;;5018141;28;20030;-78
2023/10/12 10:51:07;;;;;;;7.20;3.42;;;24.80;99.90;;;;;;5016556;28;20041;-79
2023/10/12 10:53:36;;;;;;;9.13;3.80;;;24.90;99.90;;;;;;5014419;28;21006;-79
2023/10/12 10:56:12;;;;;;;10.40;3.40;;;25.00;99.90;;;;;;5018355;28;20083;-80
2023/10/12 10:58:39;;;;;;;9.90;4.18;;;25.00;99.90;;;;;;5019490;28;20168;-77
2023/10/12 11:01:07;;;;;;;10.88;3.35;;;25.10;99.90;;;;;;5020902;28;20030;-79
2023/10/12 11:03:34;;;;;;;6.72;3.33;;;25.30;99.90;;;;;;5021535;28;20037;-78
2023/10/12 11:06:00;;;;;;;10.57;3.38;;;25.30;99.90;;;;;;5023587;28;20748;-79
2023/10/12 11:08:31;;;;;;;10.30;3.47;;;25.10;99.90;;;;;;5016230;28;20032;-78
2023/10/12 11:13:39;;;;;;;9.77;3.53;;;24.80;99.90;;;;;;5015898;28;20112;-78
2023/10/12 11:16:21;;;;;;;7.57;3.30;;;24.60;99.90;;;;;;5015536;28;20029;-78
2023/10/12 11:18:54;;;;;;;9.30;3.58;;;24.40;99.90;;;;;;5013268;28;20471;-78
2023/10/12 11:21:20;;;;;;;12.43;3.30;;;24.30;99.90;;;;;;5017557;28;20075;-77
2023/10/12 11:23:50;;;;;;;8.77;3.13;;;24.20;99.90;;;;;;5016502;28;20037;-78
2023/10/12 11:26:19;;;;;;;16.25;4.03;;;24.20;99.90;;;;;;5013074;28;20033;-80
2023/10/12 11:28:46;;;;;;;12.02;3.63;;;24.40;99.90;;;;;;5014821;28;20026;-78
2023/10/12 11:31:20;;;;;;;13.20;3.60;;;24.70;99.90;;;;;;5016387;28;20029;-79
2023/10/12 11:33:49;;;;;;;11.60;3.58;;;25.00;99.90;;;;;;5013407;28;20117;-77
2023/10/12 11:36:19;;;;;;;19.02;4.75;;;25.10;99.90;;;;;;5013984;28;20567;-78
2023/10/12 11:38:49;;;;;;;13.88;3.30;;;25.40;99.90;;;;;;5014533;28;20030;-77
2023/10/12 11:41:16;;;;;;;11.80;3.40;;;25.40;99.90;;;;;;5011471;28;20029;-78
2023/10/12 11:44:00;;;;;;;12.63;3.70;;;25.40;99.90;;;;;;5013839;28;20030;-77
2023/10/12 11:46:26;;;;;;;10.37;3.93;;;25.50;99.90;;;;;;5011165;28;20578;-77
2023/10/12 11:49:10;;;;;;;12.60;3.10;;;25.70;99.90;;;;;;5013060;28;20292;-78
2023/10/12 11:51:50;;;;;;;7.05;3.55;;;25.70;99.90;;;;;;5015709;28;20026;-79
2023/10/12 11:54:19;;;;;;;7.35;3.08;;;25.90;99.90;;;;;;5014988;28;20445;-79
2023/10/12 11:56:49;;;;;;;6.65;3.08;;;26.30;99.90;;;;;;5011617;28;20050;-78
2023/10/12 11:59:25;;;;;;;8.80;3.17;;;26.50;99.90;;;;;;5011465;28;20029;-79
2023/10/12 12:01:54;;;;;;;8.63;3.50;;;26.50;99.90;;;;;;5013171;28;20029;-78
2023/10/12 12:04:24;;;;;;;9.82;3.67;;;26.40;99.90;;;;;;5009700;28;20135;-78
2023/10/12 12:06:50;;;;;;;12.73;3.38;;;26.20;99.90;;;;;;5014721;28;20472;-79
2023/10/12 12:09:17;;;;;;;8.82;4.10;;;26.00;99.90;;;;;;5017021;28;20053;-79
2023/10/12 12:11:43;;;;;;;13.05;3.80;;;25.70;99.90;;;;;;5015270;28;20034;-77
2023/10/12 12:14:08;;;;;;;16.92;4.22;;;25.50;99.90;;;;;;5014941;28;20017;-78
2023/10/12 12:16:38;;;;;;;9.77;3.40;;;25.40;99.90;;;;;;5021424;28;20488;-78
2023/10/12 12:19:04;;;;;;;10.75;3.42;;;25.40;99.90;;;;;;5015369;28;20033;-78
2023/10/12 12:21:30;;;;;;;8.05;3.53;;;25.30;99.90;;;;;;5014312;28;20046;-79
2023/10/12 12:26:45;;;;;;;12.52;3.22;;;25.30;99.90;;;;;;5019589;28;20080;-78
2023/10/12 12:29:11;;;;;;;11.23;3.17;;;25.30;99.90;;;;;;5018852;28;20834;-79
2023/10/12 12:31:37;;;;;;;9.23;3.63;;;25.30;99.90;;;;;;5017763;28;20033;-78
2023/10/12 12:34:07;;;;;;;6.90;3.20;;;25.20;99.90;;;;;;5016825;28;20033;-78
2023/10/12 12:36:33;;;;;;;11.18;3.70;;;25.10;99.90;;;;;;5014912;28;20983;-77
2023/10/12 12:39:10;;;;;;;11.35;3.95;;;25.00;99.90;;;;;;5016832;28;20116;-79
2023/10/12 12:41:36;;;;;;;14.85;3.88;;;24.80;99.90;;;;;;5019991;28;20030;-80
2023/10/12 12:44:01;;;;;;;16.10;3.70;;;24.70;99.90;;;;;;5016194;28;20571;-80
2023/10/12 12:46:29;;;;;;;10.43;3.55;;;24.50;99.90;;;;;;5013178;28;20034;-80
2023/10/12 12:48:55;;;;;;;12.02;3.45;;;24.50;99.90;;;;;;5015453;28;20121;-79
2023/10/12 12:51:21;;;;;;;8.80;3.80;;;24.40;99.90;;;;;;5015152;28;20060;-79
2023/10/12 12:53:50;;;;;;;9.63;3.45;;;24.20;99.90;;;;;;5010806;28;20176;-78
2023/10/12 12:56:22;;;;;;;11.98;3.50;;;24.00;99.90;;;;;;5015883;28;20029;-80
2023/10/12 12:58:51;;;;;;;12.02;3.88;;;23.90;99.90;;;;;;5014714;28;21382;-80
2023/10/12 13:01:18;;;;;;;11.73;3.40;;;23.80;99.90;;;;;;5016523;28;20148;-80
2023/10/12 13:03:45;;;;;;;9.43;4.13;;;23.70;99.90;;;;;;5015304;28;20049;-81
2023/10/12 13:06:12;;;;;;;10.60;3.60;;;23.70;99.90;;;;;;5015610;28;20089;-82
2023/10/12 13:08:38;;;;;;;10.25;3.95;;;23.70;99.90;;;;;;5015245;28;20030;-81
2023/10/12 13:11:09;;;;;;;9.02;3.40;;;23.70;99.90;;;;;;5013383;28;20046;-80
2023/10/12 13:13:35;;;;;;;12.80;3.63;;;23.60;99.90;;;;;;5013747;28;20026;-79
2023/10/12 13:16:05;;;;;;;11.65;3.70;;;23.60;99.90;;;;;;5012284;28;20026;-79
2023/10/12 13:18:32;;;;;;;12.85;3.80;;;23.60;99.90;;;;;;5014554;28;20506;-79
2023/10/12 13:20:59;;;;;;;13.75;3.78;;;23.60;99.90;;;;;;5013544;28;20042;-78
2023/10/12 13:23:25;;;;;;;14.23;3.70;;;23.60;99.90;;;;;;5013692;28;20033;-80
2023/10/12 13:25:50;;;;;;;13.25;3.88;;;23.70;99.90;;;;;;5011423;28;20048;-79
2023/10/12 13:28:16;;;;;;;12.05;3.42;;;23.60;99.90;;;;;;5011244;28;20033;-80
2023/10/12 13:30:43;;;;;;;14.68;3.88;;;23.70;99.90;;;;;;5014010;28;20045;-80
2023/10/12 13:33:11;;;;;;;11.05;3.60;;;23.60;99.90;;;;;;5012451;28;20124;-79
2023/10/12 13:38:10;;;;;;;12.52;3.83;;;23.70;99.90;;;;;;5017744;28;20034;-79
2023/10/12 13:40:39;;;;;;;12.35;3.65;;;23.70;99.90;;;;;;5014931;28;20025;-78
2023/10/12 13:43:14;;;;;;;14.02;3.83;;;23.80;99.90;;;;;;5014722;28;20076;-80
2023/10/12 13:45:47;;;;;;;13.75;3.80;;;23.80;99.90;;;;;;5014126;28;20467;-77
2023/10/12 13:48:18;;;;;;;15.18;3.65;;;23.90;99.90;;;;;;5012696;28;20089;-78
2023/10/12 13:50:50;;;;;;;10.63;3.53;;;23.90;99.90;;;;;;5012351;28;20101;-77
2023/10/12 13:53:15;;;;;;;9.40;3.03;;;23.90;99.90;;;;;;5016446;28;20025;-77
2023/10/12 13:55:42;;;;;;;18.33;4.13;;;23.90;99.90;;;;;;5012417;28;20132;-77
2023/10/12 13:58:10;;;;;;;11.10;3.42;;;23.90;99.90;;;;;;5014481;28;20068;-78
2023/10/12 14:00:37;;;;;;;11.30;3.50;;;23.80;99.90;;;;;;5013710;28;20156;-77
2023/10/12 14:03:10;;;;;;;9.90;3.15;;;23.80;99.90;;;;;;5010503;28;20065;-77
2023/10/12 14:05:40;;;;;;;11.68;3.67;;;23.80;99.90;;;;;;5008081;28;20051;-78
2023/10/12 14:08:09;;;;;;;7.70;3.17;;;23.70;99.90;;;;;;5010223;28;20162;-78
2023/10/12 14:10:42;;;;;;;17.95;3.75;;;23.80;99.90;;;;;;5009032;28;21426;-77
2023/10/12 14:13:08;;;;;;;10.73;3.25;;;23.80;99.90;;;;;;5013023;28;20048;-78
2023/10/12 14:15:37;;;;;;;11.00;3.28;;;23.90;99.90;;;;;;5011378;28;20038;-79
2023/10/12 14:18:04;;;;;;;12.93;3.60;;;23.80;99.90;;;;;;5015926;28;20071;-79
2023/10/12 14:20:32;;;;;;;9.50;3.42;;;23.80;99.90;;;;;;5013745;28;20108;-79
2023/10/12 14:23:05;;;;;;;7.35;2.95;;;23.70;99.90;;;;;;5015841;28;20092;-77
2023/10/12 14:25:35;;;;;;;11.98;3.45;;;23.70;99.90;;;;;;5014194;28;20044;-79
2023/10/12 14:28:03;;;;;;;13.27;3.10;;;23.60;99.90;;;;;;5016706;28;20997;-77
2023/10/12 14:30:29;;;;;;;8.23;3.30;;;23.60;99.90;;;;;;5014318;28;20052;-81
2023/10/12 14:33:02;;;;;;;13.95;4.03;;;23.50;99.90;;;;;;5018778;28;20056;-83
2023/10/12 14:35:37;;;;;;;8.70;3.53;;;23.40;99.90;;;;;;5019244;28;20041;-82
2023/10/12 14:38:06;;;;;;;17.17;4.13;;;23.40;99.90;;;;;;5022597;28;20034;-85
2023/10/12 14:40:32;;;;;;;11.95;3.75;;;23.20;99.90;;;;;;5016481;28;20033;-80
2023/10/12 14:43:10;;;;;;;14.52;3.33;;;23.20;99.90;;;;;;5020931;28;20045;-79
2023/10/12 14:45:58;;;;;;;10.90;3.58;;;23.10;99.90;;;;;;5022069;28;20026;-81
2023/10/12 14:48:25;;;;;;;8.80;2.90;;;23.00;99.90;;;;;;5021467;28;20034;-79
2023/10/12 14:50:59;;;;;;;9.23;3.42;;;22.90;99.90;;;;;;5022134;28;20041;-81
2023/10/12 14:53:28;;;;;;;;;;;22.90;99.90;;;;;;5017174;28;20030;-79
2023/10/12 14:55:54;;;;;;;9.88;3.45;;;22.80;99.90;;;;;;5017379;28;19913;-79
2023/10/12 14:58:21;;;;;;;10.90;3.42;;;22.70;99.90;;;;;;5014293;28;20029;-78
2023/10/12 15:00:47;;;;;;;18.30;4.70;;;22.70;99.90;;;;;;5012523;28;20128;-79
2023/10/12 15:03:23;;;;;;;15.13;3.15;;;22.50;99.90;;;;;;5012653;28;20038;-79
2023/10/12 15:05:55;;;;;;;15.57;3.10;;;22.50;99.90;;;;;;5011722;28;20159;-79
2023/10/12 15:08:23;;;;;;;11.43;3.45;;;22.40;99.90;;;;;;4995468;28;20029;-82
2023/10/12 15:10:49;;;;;;;12.43;3.22;;;22.40;99.90;;;;;;5012684;28;20396;-77